Nearby METAR Reports

 

KSJC - San Jose, California, USA
Distance from station: NO 14km
Update: 04/07/2022 00:53
Few Clouds
Few Clouds
 Wind van NNW
Wind: NNW 22 km/h
Temperatuur: 21°C
Dauwpunt: 10°C
Vochtigheid: 50%
Barometer: 1015.6 hPa
Clouds: Few Clouds
Visibility: 16 km
Cloud details: Few Clouds 914 m
2022/07/03 22:53 KSJC 032253Z 33012KT 10SM FEW030 21/10 A2999 RMK AO2 SLP154 T02060100
KNUQ - Moffett Nas/Mtn, California, USA
Distance from station: N 14km
Update: 28/06/2022 13:55
NOT Current

 Wind van calm
Wind: Kalm
Temperatuur: 15°C
Dauwpunt: 12°C
Vochtigheid: 82%
Barometer: 1017.9 hPa
Visibility: 16 km
2022/06/28 11:55 KNUQ 281155Z AUTO 00000KT 10SM 15/12 A3006 RMK AO2
 
KPAO - Palo Alto, California, USA
Distance from station: NNW 23km
Update: 04/07/2022 00:47
Few Clouds
Few Clouds
 Wind van WNW
Wind: WNW 19 km/h, Windvlaag: 33 km/h
Temperatuur: 20°C
Dauwpunt: 11°C
Vochtigheid: 56%
Barometer: 1015.9 hPa
Clouds: Few Clouds
Visibility: 16 km
Cloud details: Few Clouds 914 m
2022/07/03 22:47 KPAO 032247Z 30010G18KT 10SM FEW030 20/11 A3000
KRHV - San Jose/Reid, California, USA
Distance from station: ONO 19km
Update: 04/07/2022 00:50
Helder
Helder
 Wind van NW
Wind: NW 15 km/h
Temperatuur: 21°C
Dauwpunt: 10°C
Vochtigheid: 50%
Barometer: 1015.6 hPa
Clouds: Helder
Visibility: 16 km
2022/07/03 22:50 KRHV 032250Z 32008KT 10SM SKC 21/10 A2999
 
KOAK - Oakland, California, USA
Distance from station: NNW 50km
Update: 04/07/2022 00:53
Gedeeltelijk bewolkt
Gedeeltelijk bewolkt
 Wind van W
Wind: W 28 km/h
Temperatuur: 18°C
Dauwpunt: 10°C
Vochtigheid: 60%
Barometer: 1016.3 hPa
Clouds: Gedeeltelijk bewolkt
Visibility: 16 km
Cloud details: Gedeeltelijk bewolkt 884 m
2022/07/03 22:53 KOAK 032253Z 26015KT 10SM SCT029 18/10 A3001 RMK AO2 SLP163 T01780100
KSQL - San Carlos Airpo, California, USA
Distance from station: NW 34km
Update: 04/07/2022 00:37
Gedeeltelijk bewolkt
Gedeeltelijk bewolkt
 Wind van WZW
Wind: WZW 22 km/h, Windvlaag: 35 km/h
Temperatuur: 18°C
Dauwpunt: 10°C
Vochtigheid: 60%
Barometer: 1016.3 hPa
Clouds: Gedeeltelijk bewolkt
Visibility: 16 km
Cloud details: Gedeeltelijk bewolkt 853 m
2022/07/03 22:37 KSQL 032237Z 24012G19KT 10SM SCT028 18/10 A3001
 
KSFO - San Francisco, California, USA
Distance from station: NW 49km
Update: 04/07/2022 00:56
Meestal bewolkt
Meestal bewolkt
 Wind van W
Wind: W 26 km/h
Temperatuur: 17°C
Dauwpunt: 9°C
Vochtigheid: 59%
Barometer: 1016.3 hPa
Clouds: Meestal bewolkt
Visibility: 16 km
Cloud details: Few Clouds 457 m
Meestal bewolkt 671 m
2022/07/03 22:56 KSFO 032256Z 27014KT 10SM FEW015 BKN022 17/09 A3001 RMK AO2 SLP161 T01720094
KE16 - San Martin, California, USA
Distance from station: OZO 43km
Update: 04/07/2022 00:35
Helder
Helder
 Wind van NNW
Wind: NNW 22 km/h, Windvlaag: 33 km/h
Temperatuur: 22°C
Dauwpunt: 10°C
Vochtigheid: 47%
Barometer: 1015.2 hPa
Clouds: Helder
Visibility: 16 km
2022/07/03 22:35 KE16 032235Z AUTO 34012G18KT 10SM CLR 22/10 A2998 RMK AO2 PWINO PNO
 
KWVI - Watsonville, California, USA
Distance from station: ZZO 44km
Update: 04/07/2022 00:53
Helder
Helder
 Wind van WZW
Wind: WZW 19 km/h
Temperatuur: 19°C
Dauwpunt: 11°C
Vochtigheid: 60%
Barometer: 1015.9 hPa
Clouds: Helder
Visibility: 16 km
2022/07/03 22:53 KWVI 032253Z AUTO 25010KT 10SM CLR 19/11 A3000 RMK AO2 SLP157 T01890106
KHAF - Half Moon Bay, California, USA
Distance from station: WNW 50km
Update: 04/07/2022 00:55
Zwaar bewolkt
Zwaar bewolkt
 Wind van W
Wind: W 13 km/h
Temperatuur: 15°C
Dauwpunt: 12°C
Vochtigheid: 82%
Barometer: 1016.9 hPa
Clouds: Zwaar bewolkt
Visibility: 16 km
Cloud details: Zwaar bewolkt 640 m
2022/07/03 22:55 KHAF 032255Z AUTO 28007KT 10SM OVC021 15/12 A3003 RMK AO2
 
KHWD - Hayward, California, USA
Distance from station: N 44km
Update: 04/07/2022 00:54
Meestal bewolkt
Meestal bewolkt
 Wind van WZW
Wind: WZW 22 km/h, Windvlaag: 33 km/h
Temperatuur: 17°C
Dauwpunt: 10°C
Vochtigheid: 64%
Barometer: 1016.3 hPa
Clouds: Meestal bewolkt
Visibility: 16 km
Cloud details: Meestal bewolkt 671 m
2022/07/03 22:54 KHWD 032254Z 25012G18KT 10SM BKN022 17/10 A3001 RMK AO2 SLP171 T01720100
KLVK - Livermore, California, USA
Distance from station: NNO 51km
Update: 04/07/2022 00:53
Helder
Helder
 Wind van NW
Wind: NW 24 km/h
Temperatuur: 20°C
Dauwpunt: 9°C
Vochtigheid: 49%
Barometer: 1015.2 hPa
Clouds: Helder
Visibility: 16 km
2022/07/03 22:53 KLVK 032253Z 31013KT 10SM CLR 20/09 A2998 RMK AO2 SLP147 T02000094